CheckWX is a tool to help pilots better visualize weather data.  It is not intended as a substitute for an official pre-flight weather briefing.

22:32:25 UTC

KDVK METAR
Stuart Powell Field Airport
Danville, Kentucky, USA
Current

17 mins ago

KDVK 262215Z AUTO 04010G14KT 010V070 10SM CLR 09/M07 A3030 RMK AO2
Observed
Mar-26 @ 22:15 UTC
Wind
  • 040° at 10 KTS
  • Gusting to 14 KTS
Visibility
10 SM
Flight Rules
VFR
Cloud Levels
  • Clear skies
Temperature
C / 48°F
Dewpoint
-7°C / 19°F
Humidity
32%
Altimeter
30.3" Hg
Pressure
1026.12 hPa
Previous

37 mins ago

KDVK 262155Z AUTO 03009KT 10SM CLR 09/M06 A3031 RMK AO2
Observed
Mar-26 @ 21:55 UTC
Wind
  • 030° at 9 KTS
Visibility
10 SM
Flight Rules
VFR
Cloud Levels
  • Clear skies
Temperature
C / 48°F
Dewpoint
-6°C / 21°F
Humidity
34%
Altimeter
30.31" Hg
Pressure
1026.42 hPa
Previous

57 mins ago

KDVK 262135Z AUTO 03008G14KT 10SM CLR 09/M07 A3031 RMK AO2
Observed
Mar-26 @ 21:35 UTC
Wind
  • 030° at 8 KTS
  • Gusting to 14 KTS
Visibility
10 SM
Flight Rules
VFR
Cloud Levels
  • Clear skies
Temperature
C / 48°F
Dewpoint
-7°C / 19°F
Humidity
32%
Altimeter
30.31" Hg
Pressure
1026.42 hPa